createdAt,value
2023-03-02T00:00:14.805Z,0.63
2023-03-02T00:03:20.273Z,0.65
2023-03-02T00:06:22.839Z,0.60
2023-03-02T00:09:25.688Z,0.54
2023-03-02T00:12:30.597Z,0.54
2023-03-02T00:15:33.128Z,0.51
2023-03-02T00:18:36.076Z,0.51
2023-03-02T00:21:38.607Z,0.44
2023-03-02T00:24:41.172Z,0.43
2023-03-02T00:27:44.500Z,0.37
2023-03-02T00:30:47.924Z,0.31
2023-03-02T00:33:54.343Z,0.27
2023-03-02T00:36:56.844Z,0.21
2023-03-02T00:39:59.311Z,0.24
2023-03-02T00:43:02.069Z,0.27
2023-03-02T00:46:12.853Z,0.17
2023-03-02T00:49:15.511Z,0.14
2023-03-02T00:52:18.258Z,0.14
2023-03-02T00:55:20.996Z,0.09
2023-03-02T00:58:26.472Z,0.07
2023-03-02T01:01:29.890Z,0.04
2023-03-02T01:04:41.424Z,-0.02
2023-03-02T01:07:43.926Z,-0.03
2023-03-02T01:10:47.194Z,-0.03
2023-03-02T01:13:50.482Z,0.07
2023-03-02T01:16:53.011Z,0.35
2023-03-02T01:19:56.461Z,0.35
2023-03-02T01:22:59.578Z,0.33
2023-03-02T01:26:02.313Z,0.28
2023-03-02T01:29:04.972Z,0.22
2023-03-02T01:32:08.889Z,0.14
2023-03-02T01:35:11.843Z,0.09
2023-03-02T01:38:14.607Z,-0.02
2023-03-02T01:41:17.883Z,-0.12
2023-03-02T01:44:35.875Z,-0.15
2023-03-02T01:47:39.921Z,-0.08
2023-03-02T01:50:50.144Z,-0.14
2023-03-02T01:53:58.378Z,-0.04
2023-03-02T01:57:03.272Z,-0.14
2023-03-02T02:00:08.885Z,-0.26
2023-03-02T02:03:20.971Z,-0.32
2023-03-02T02:06:37.130Z,-0.35
2023-03-02T02:09:51.453Z,-0.35
2023-03-02T02:12:54.125Z,-0.10
2023-03-02T02:15:56.696Z,0.13
2023-03-02T02:19:01.083Z,0.34
2023-03-02T02:22:04.526Z,0.44
2023-03-02T02:25:21.105Z,0.51
2023-03-02T02:28:32.001Z,0.50
2023-03-02T02:32:07.052Z,0.60
2023-03-02T02:35:19.860Z,0.58
2023-03-02T02:38:24.605Z,0.56
2023-03-02T02:41:31.675Z,0.58
2023-03-02T02:44:35.048Z,0.55
2023-03-02T02:47:38.133Z,0.60
2023-03-02T02:50:43.191Z,0.57
2023-03-02T02:53:58.645Z,0.57
2023-03-02T02:57:05.069Z,0.55
2023-03-02T03:00:18.128Z,0.65
2023-03-02T03:03:34.301Z,0.62
2023-03-02T03:06:50.763Z,0.64
2023-03-02T03:10:01.307Z,0.66
2023-03-02T03:13:04.237Z,0.71
2023-03-02T03:16:11.380Z,0.64
2023-03-02T03:19:24.189Z,0.57
2023-03-02T03:22:27.637Z,0.62
2023-03-02T03:25:35.026Z,0.75
2023-03-02T03:28:38.034Z,0.83
2023-03-02T03:31:41.488Z,0.85
2023-03-02T03:34:44.436Z,0.81
2023-03-02T03:37:57.138Z,0.77
2023-03-02T03:41:00.738Z,0.73
2023-03-02T03:44:04.712Z,0.69
2023-03-02T03:47:09.753Z,0.70
2023-03-02T03:50:13.098Z,0.70
2023-03-02T03:53:17.152Z,0.64
2023-03-02T03:56:20.286Z,0.66
2023-03-02T03:59:25.060Z,0.68
2023-03-02T04:02:32.006Z,0.64
2023-03-02T04:05:34.831Z,0.57
2023-03-02T04:08:38.540Z,0.49
2023-03-02T04:11:43.783Z,0.38
2023-03-02T04:14:46.385Z,0.29
2023-03-02T04:17:49.229Z,0.15
2023-03-02T04:20:54.958Z,-0.03
2023-03-02T04:23:57.622Z,-0.12
2023-03-02T04:27:00.192Z,-0.22
2023-03-02T04:30:03.522Z,-0.20
2023-03-02T04:33:07.237Z,-0.28
2023-03-02T04:36:11.104Z,-0.41
2023-03-02T04:39:19.263Z,-0.46
2023-03-02T04:42:25.276Z,-0.52
2023-03-02T04:45:27.779Z,-0.51
2023-03-02T04:48:30.711Z,-0.42
2023-03-02T04:51:42.067Z,-0.33
2023-03-02T04:54:44.577Z,-0.35
2023-03-02T04:57:47.162Z,-0.40
2023-03-02T05:00:49.955Z,-0.47
2023-03-02T05:03:53.518Z,-0.52
2023-03-02T05:07:01.683Z,-0.52
2023-03-02T05:10:04.971Z,-0.56
2023-03-02T05:13:07.747Z,-0.68
2023-03-02T05:16:10.334Z,-0.77
2023-03-02T05:19:13.421Z,-0.82
2023-03-02T05:22:16.040Z,-0.89
2023-03-02T05:25:18.723Z,-0.91
2023-03-02T05:28:23.316Z,-0.93
2023-03-02T05:31:31.802Z,-0.94
2023-03-02T05:34:34.483Z,-0.98
2023-03-02T05:37:39.839Z,-0.97
2023-03-02T05:40:43.430Z,-0.99
2023-03-02T05:43:45.905Z,-0.96
2023-03-02T05:46:49.692Z,-0.88
2023-03-02T05:49:52.503Z,-0.88
2023-03-02T05:52:55.075Z,-0.90
2023-03-02T05:55:57.644Z,-0.81
2023-03-02T05:59:00.195Z,-0.81
2023-03-02T06:02:03.307Z,-0.79
2023-03-02T06:05:11.462Z,-0.74
2023-03-02T06:08:14.005Z,-0.63
2023-03-02T06:11:17.159Z,-0.49
2023-03-02T06:14:19.753Z,-0.45
2023-03-02T06:17:22.234Z,-0.27
2023-03-02T06:20:25.463Z,0.07
2023-03-02T06:23:28.251Z,0.23
2023-03-02T06:26:31.457Z,0.37
2023-03-02T06:29:34.182Z,0.94
2023-03-02T06:32:36.974Z,1.46
2023-03-02T06:35:39.679Z,1.59
2023-03-02T06:38:42.529Z,1.68
2023-03-02T06:41:46.682Z,1.75
2023-03-02T06:44:49.786Z,1.85
2023-03-02T06:47:54.109Z,1.94
2023-03-02T06:50:57.442Z,2.05
2023-03-02T06:54:00.284Z,2.15
2023-03-02T06:57:03.089Z,2.27
2023-03-02T07:00:15.503Z,2.42
2023-03-02T07:03:23.109Z,2.51
2023-03-02T07:06:25.732Z,2.67
2023-03-02T07:09:30.867Z,2.85
2023-03-02T07:12:33.625Z,3.01
2023-03-02T07:15:42.453Z,3.12
2023-03-02T07:18:45.270Z,3.23
2023-03-02T07:21:48.933Z,3.33
2023-03-02T07:24:51.464Z,3.32
2023-03-02T07:27:53.948Z,3.46
2023-03-02T07:30:56.681Z,3.48
2023-03-02T07:33:59.204Z,3.58
2023-03-02T07:37:34.977Z,3.63
2023-03-02T07:41:33.102Z,3.78
2023-03-02T07:44:36.079Z,3.83
2023-03-02T07:47:38.679Z,3.95
2023-03-02T07:50:41.307Z,4.25
2023-03-02T07:53:43.870Z,4.44
2023-03-02T07:56:46.502Z,4.60
2023-03-02T07:59:49.240Z,4.61
2023-03-02T08:02:51.990Z,4.71
2023-03-02T08:05:56.154Z,4.86
2023-03-02T08:09:00.412Z,4.87
2023-03-02T08:12:02.987Z,4.95
2023-03-02T08:15:09.038Z,5.06
2023-03-02T08:18:11.782Z,5.20
2023-03-02T08:21:17.549Z,5.26
2023-03-02T08:24:20.254Z,5.41
2023-03-02T08:27:22.819Z,5.54
2023-03-02T08:30:26.019Z,5.61
2023-03-02T08:33:29.232Z,5.68
2023-03-02T08:36:32.339Z,5.70
2023-03-02T08:39:35.148Z,5.90
2023-03-02T08:42:37.752Z,6.02
2023-03-02T08:45:40.355Z,6.23
2023-03-02T08:48:43.618Z,6.20
2023-03-02T08:51:47.201Z,6.20
2023-03-02T08:54:49.706Z,6.18
2023-03-02T08:57:52.307Z,6.28
2023-03-02T09:00:56.146Z,6.51
2023-03-02T09:04:00.938Z,6.55
2023-03-02T09:07:04.001Z,6.74
2023-03-02T09:10:08.363Z,6.88
2023-03-02T09:13:11.849Z,6.86
2023-03-02T09:16:20.355Z,6.98
2023-03-02T09:19:22.955Z,7.18
2023-03-02T09:22:25.636Z,7.33
2023-03-02T09:25:29.660Z,7.45
2023-03-02T09:28:34.479Z,7.56
2023-03-02T09:31:37.761Z,7.91
2023-03-02T09:34:40.790Z,8.05
2023-03-02T09:37:44.513Z,8.05
2023-03-02T09:41:00.481Z,8.09
2023-03-02T09:44:09.276Z,8.34
2023-03-02T09:47:29.922Z,8.32
2023-03-02T09:50:45.320Z,8.39
2023-03-02T09:54:00.558Z,8.56
2023-03-02T09:57:06.670Z,8.49
2023-03-02T10:01:18.815Z,8.62
2023-03-02T10:04:27.725Z,8.80
2023-03-02T10:07:33.194Z,8.82
2023-03-02T10:10:46.983Z,8.90
2023-03-02T10:14:13.661Z,9.12
2023-03-02T10:17:43.199Z,9.26
2023-03-02T10:20:52.896Z,9.40
2023-03-02T10:24:10.072Z,9.36
2023-03-02T10:27:42.885Z,9.39
2023-03-02T10:30:50.324Z,9.46
2023-03-02T10:33:53.031Z,9.48
2023-03-02T10:36:55.607Z,9.70
2023-03-02T10:39:58.168Z,9.91
2023-03-02T10:43:01.749Z,9.91
2023-03-02T10:46:07.784Z,9.96
2023-03-02T10:49:30.651Z,9.98
2023-03-02T10:52:34.509Z,9.98
2023-03-02T10:55:48.846Z,10.14
2023-03-02T10:58:51.422Z,10.27
2023-03-02T11:02:24.473Z,10.40
2023-03-02T11:05:32.180Z,10.55
2023-03-02T11:08:35.007Z,10.55
2023-03-02T11:11:38.404Z,10.52
2023-03-02T11:14:43.007Z,10.46
2023-03-02T11:17:51.271Z,10.53
2023-03-02T11:21:36.061Z,10.72
2023-03-02T11:24:49.513Z,10.80
2023-03-02T11:28:00.213Z,10.89
2023-03-02T11:31:07.151Z,11.00
2023-03-02T11:34:18.324Z,11.03
2023-03-02T11:37:23.727Z,11.13
2023-03-02T11:40:46.728Z,11.22
2023-03-02T11:44:06.706Z,11.23
2023-03-02T11:47:12.365Z,11.40
2023-03-02T11:50:17.079Z,11.57
2023-03-02T11:53:24.044Z,11.70
2023-03-02T11:56:33.851Z,11.81
2023-03-02T11:59:36.981Z,11.93
2023-03-02T12:02:40.254Z,11.95
2023-03-02T12:06:00.210Z,12.10
2023-03-02T12:09:25.563Z,12.23
2023-03-02T12:12:36.554Z,12.16
2023-03-02T12:15:50.251Z,12.35
2023-03-02T12:18:53.141Z,12.44
2023-03-02T12:22:00.503Z,12.52
2023-03-02T12:25:21.568Z,12.71
2023-03-02T12:28:34.217Z,12.86
2023-03-02T12:31:52.134Z,13.18
2023-03-02T12:34:59.223Z,13.15
2023-03-02T12:38:16.671Z,13.42
2023-03-02T12:41:40.066Z,13.43
2023-03-02T12:44:54.001Z,13.81
2023-03-02T12:48:22.678Z,14.28
2023-03-02T12:51:33.242Z,14.10
2023-03-02T12:54:37.580Z,14.61
2023-03-02T12:57:58.728Z,14.78
2023-03-02T13:01:06.156Z,15.28
2023-03-02T13:04:21.570Z,15.62
2023-03-02T13:07:28.429Z,15.90
2023-03-02T13:10:37.879Z,15.76
2023-03-02T13:13:45.319Z,16.27
2023-03-02T13:17:00.478Z,16.24
2023-03-02T13:20:06.155Z,16.46
2023-03-02T13:23:15.076Z,16.20
2023-03-02T13:26:26.880Z,16.66
2023-03-02T13:29:32.216Z,17.35
2023-03-02T13:32:39.965Z,16.83
2023-03-02T13:35:47.059Z,17.04
2023-03-02T13:38:53.473Z,17.36
2023-03-02T13:42:00.229Z,17.39
2023-03-02T13:45:29.486Z,17.10
2023-03-02T13:48:34.314Z,17.28
2023-03-02T13:51:45.766Z,17.44
2023-03-02T13:54:49.691Z,17.39
2023-03-02T13:57:54.654Z,18.10
2023-03-02T14:00:58.247Z,18.10
2023-03-02T14:04:02.000Z,18.17
2023-03-02T14:07:06.201Z,17.84
2023-03-02T14:10:12.402Z,18.02
2023-03-02T14:13:22.710Z,17.81
2023-03-02T14:16:28.002Z,17.86
2023-03-02T14:19:38.019Z,18.29
2023-03-02T14:22:42.173Z,18.10
2023-03-02T14:25:45.280Z,18.35
2023-03-02T14:28:53.650Z,18.21
2023-03-02T14:32:04.674Z,17.92
2023-03-02T14:35:12.049Z,17.69
2023-03-02T14:38:15.062Z,18.10
2023-03-02T14:41:23.232Z,18.41
2023-03-02T14:44:26.126Z,17.85
2023-03-02T14:47:28.585Z,18.23
2023-03-02T14:50:38.648Z,18.40
2023-03-02T14:53:42.260Z,18.78
2023-03-02T14:56:45.199Z,18.66
2023-03-02T14:59:49.159Z,18.96
2023-03-02T15:02:52.835Z,18.89
2023-03-02T15:06:01.311Z,18.73
2023-03-02T15:09:05.066Z,18.49
2023-03-02T15:12:08.084Z,17.31
2023-03-02T15:15:12.286Z,17.02
2023-03-02T15:18:19.908Z,16.75
2023-03-02T15:21:25.416Z,16.20
2023-03-02T15:24:28.123Z,15.98
2023-03-02T15:27:31.217Z,15.31
2023-03-02T15:30:37.556Z,14.45
2023-03-02T15:33:40.647Z,13.68
2023-03-02T15:36:43.198Z,13.34
2023-03-02T15:39:45.813Z,13.21
2023-03-02T15:42:49.102Z,12.96
2023-03-02T15:45:51.618Z,12.84
2023-03-02T15:48:54.523Z,12.79
2023-03-02T15:51:58.488Z,12.81
2023-03-02T15:55:00.965Z,12.67
2023-03-02T15:58:08.241Z,12.50
2023-03-02T16:01:12.409Z,12.09
2023-03-02T16:04:15.569Z,11.87
2023-03-02T16:07:18.152Z,11.68
2023-03-02T16:10:21.283Z,11.45
2023-03-02T16:13:25.371Z,11.14
2023-03-02T16:16:27.993Z,10.85
2023-03-02T16:19:30.594Z,10.52
2023-03-02T16:22:33.507Z,10.24
2023-03-02T16:25:39.828Z,10.01
2023-03-02T16:28:42.884Z,9.75
2023-03-02T16:31:47.107Z,9.58
2023-03-02T16:34:49.671Z,9.34
2023-03-02T16:37:53.110Z,9.13
2023-03-02T16:40:57.228Z,8.92
2023-03-02T16:44:01.000Z,8.70
2023-03-02T16:47:04.281Z,8.53
2023-03-02T16:50:07.803Z,8.38
2023-03-02T16:53:13.589Z,8.28
2023-03-02T16:56:16.726Z,8.23
2023-03-02T16:59:19.476Z,8.09
2023-03-02T17:02:22.012Z,7.95
2023-03-02T17:05:24.730Z,7.87
2023-03-02T17:08:28.262Z,7.73
2023-03-02T17:11:31.908Z,7.62
2023-03-02T17:14:34.547Z,7.55
2023-03-02T17:17:38.396Z,7.48
2023-03-02T17:20:43.618Z,7.32
2023-03-02T17:23:48.229Z,7.18
2023-03-02T17:26:50.724Z,7.06
2023-03-02T17:29:55.030Z,6.94
2023-03-02T17:32:58.058Z,6.86
2023-03-02T17:36:07.474Z,6.78
2023-03-02T17:39:10.471Z,6.66
2023-03-02T17:42:13.229Z,6.60
2023-03-02T17:45:23.280Z,6.55
2023-03-02T17:48:26.707Z,6.36
2023-03-02T17:51:29.677Z,6.28
2023-03-02T17:54:32.840Z,6.26
2023-03-02T17:57:36.823Z,6.28
2023-03-02T18:00:41.189Z,6.25
2023-03-02T18:03:45.233Z,6.22
2023-03-02T18:06:48.542Z,6.18
2023-03-02T18:09:51.501Z,6.27
2023-03-02T18:12:54.916Z,6.27
2023-03-02T18:15:57.470Z,6.31
2023-03-02T18:19:02.013Z,6.27
2023-03-02T18:22:05.028Z,6.20
2023-03-02T18:25:08.267Z,6.12
2023-03-02T18:28:10.917Z,6.02
2023-03-02T18:31:15.675Z,5.91
2023-03-02T18:34:19.881Z,5.85
2023-03-02T18:37:22.911Z,5.83
2023-03-02T18:40:27.833Z,5.85
2023-03-02T18:43:34.855Z,5.81
2023-03-02T18:46:38.426Z,5.74
2023-03-02T18:49:42.761Z,5.73
2023-03-02T18:52:45.718Z,5.72
2023-03-02T18:55:48.866Z,5.65
2023-03-02T18:58:52.940Z,5.61
2023-03-02T19:01:56.118Z,5.53
2023-03-02T19:04:59.728Z,5.45
2023-03-02T19:08:03.814Z,5.35
2023-03-02T19:11:06.680Z,5.34
2023-03-02T19:14:09.577Z,5.32
2023-03-02T19:17:12.727Z,5.31
2023-03-02T19:20:18.231Z,5.33
2023-03-02T19:23:21.535Z,5.24
2023-03-02T19:26:24.424Z,5.15
2023-03-02T19:29:28.758Z,4.98
2023-03-02T19:32:31.893Z,4.88
2023-03-02T19:35:35.463Z,4.83
2023-03-02T19:38:41.538Z,4.67
2023-03-02T19:41:44.460Z,4.57
2023-03-02T19:44:47.252Z,4.40
2023-03-02T19:47:50.040Z,4.36
2023-03-02T19:50:54.301Z,4.32
2023-03-02T19:53:57.959Z,4.22
2023-03-02T19:57:03.195Z,4.21
2023-03-02T20:00:09.336Z,4.14
2023-03-02T20:03:15.424Z,4.06
2023-03-02T20:06:20.726Z,4.01
2023-03-02T20:09:24.301Z,4.01
2023-03-02T20:12:27.053Z,4.02
2023-03-02T20:15:32.133Z,4.02
2023-03-02T20:18:35.609Z,4.01
2023-03-02T20:21:38.658Z,3.97
2023-03-02T20:24:42.611Z,3.91
2023-03-02T20:27:45.280Z,3.88
2023-03-02T20:30:56.386Z,3.88
2023-03-02T20:33:59.303Z,3.92
2023-03-02T20:37:03.282Z,3.98
2023-03-02T20:40:08.248Z,3.98
2023-03-02T20:43:13.175Z,3.97
2023-03-02T20:46:27.223Z,3.89
2023-03-02T20:49:31.225Z,3.84
2023-03-02T20:52:34.045Z,3.81
2023-03-02T20:55:36.895Z,3.80
2023-03-02T20:58:43.405Z,3.73
2023-03-02T21:01:46.258Z,3.69
2023-03-02T21:04:49.630Z,3.63
2023-03-02T21:07:53.911Z,3.60
2023-03-02T21:10:57.055Z,3.52
2023-03-02T21:14:02.168Z,3.47
2023-03-02T21:17:05.400Z,3.43
2023-03-02T21:20:09.320Z,3.39
2023-03-02T21:23:13.210Z,3.32
2023-03-02T21:26:16.243Z,3.26
2023-03-02T21:29:22.250Z,3.26
2023-03-02T21:32:24.894Z,3.19
2023-03-02T21:35:27.640Z,3.09
2023-03-02T21:38:30.680Z,3.14
2023-03-02T21:41:37.988Z,3.08
2023-03-02T21:44:44.067Z,3.05
2023-03-02T21:47:47.027Z,2.94
2023-03-02T21:50:49.929Z,2.85
2023-03-02T21:53:55.154Z,2.80
2023-03-02T21:56:57.631Z,2.83
2023-03-02T22:00:00.757Z,2.75
2023-03-02T22:03:03.866Z,2.63
2023-03-02T22:06:06.698Z,2.66
2023-03-02T22:09:11.567Z,2.62
2023-03-02T22:12:15.629Z,2.57
2023-03-02T22:15:21.184Z,2.52
2023-03-02T22:18:25.865Z,2.42
2023-03-02T22:21:37.469Z,2.35
2023-03-02T22:24:42.124Z,2.25
2023-03-02T22:27:46.145Z,2.15
2023-03-02T22:30:50.964Z,2.22
2023-03-02T22:33:53.914Z,2.26
2023-03-02T22:37:10.853Z,2.23
2023-03-02T22:40:30.583Z,2.08
2023-03-02T22:43:35.034Z,2.00
2023-03-02T22:46:37.562Z,1.96
2023-03-02T22:49:40.095Z,1.97
2023-03-02T22:52:44.684Z,2.04
2023-03-02T22:55:47.785Z,2.08
2023-03-02T22:58:51.428Z,2.05
2023-03-02T23:02:00.124Z,1.94
2023-03-02T23:05:18.136Z,1.88
2023-03-02T23:08:31.059Z,1.88
2023-03-02T23:11:40.981Z,1.80
2023-03-02T23:14:53.097Z,1.70
2023-03-02T23:17:57.819Z,1.64
2023-03-02T23:21:00.320Z,1.63
2023-03-02T23:24:03.185Z,1.55
2023-03-02T23:27:05.809Z,1.46
2023-03-02T23:30:09.615Z,1.43
2023-03-02T23:33:12.128Z,1.40
2023-03-02T23:36:15.489Z,1.34
2023-03-02T23:39:18.511Z,1.33
2023-03-02T23:42:21.123Z,1.31
2023-03-02T23:45:23.606Z,1.36
2023-03-02T23:48:26.343Z,1.34
2023-03-02T23:51:28.902Z,1.28
2023-03-02T23:54:31.529Z,1.18
2023-03-02T23:57:34.765Z,1.12
